Time;durP1;ratioP1;P1;durP2;ratioP2;P2;SDS_P1;SDS_P2;PMS_P1;PMS_P2;Temp;Humidity;BMP_temperature;BMP_pressure;BME280_temperature;BME280_humidity;BME280_pressure;Samples;Min_cycle;Max_cycle;Signal;HPM_P1;HPM_P2
2023/10/25 00:03:03;;;;;;;;;;;8.40;99.90;;;;;;6705054;88;20054;-79
2023/10/25 00:13:03;;;;;;;;;;;8.30;99.90;;;;;;6714499;88;20054;-79
2023/10/25 00:23:04;;;;;;;;;;;8.50;99.90;;;;;;6709237;88;20070;-79
2023/10/25 00:33:04;;;;;;;;;;;8.60;99.90;;;;;;6709813;88;20063;-79
2023/10/25 00:43:19;;;;;;;;;;;8.60;99.90;;;;;;6709684;88;20239;-80
2023/10/25 00:53:20;;;;;;;;;;;8.60;99.90;;;;;;6708603;88;20104;-80
2023/10/25 01:03:20;;;;;;;;;;;8.70;99.90;;;;;;6709138;88;20519;-80
2023/10/25 01:13:24;;;;;;;;;;;8.70;99.90;;;;;;6708446;88;20190;-79
2023/10/25 01:23:24;;;;;;;;;;;8.80;99.90;;;;;;6708397;88;20071;-81
2023/10/25 01:33:25;;;;;;;;;;;8.70;99.90;;;;;;6709006;88;20585;-80
2023/10/25 01:43:25;;;;;;;;;;;8.70;99.90;;;;;;6715284;88;20080;-80
2023/10/25 01:53:26;;;;;;;;;;;8.70;99.90;;;;;;6718595;88;20057;-81
2023/10/25 02:03:26;;;;;;;;;;;8.60;99.90;;;;;;6714583;88;20086;-81
2023/10/25 02:13:26;;;;;;;;;;;8.60;99.90;;;;;;6715659;88;20668;-81
2023/10/25 02:23:27;;;;;;;;;;;8.50;99.90;;;;;;6710756;88;20123;-80
2023/10/25 02:33:27;;;;;;;;;;;8.50;99.90;;;;;;6710992;88;20139;-81
2023/10/25 02:43:28;;;;;;;;;;;8.50;99.90;;;;;;6710401;88;20072;-80
2023/10/25 02:53:28;;;;;;;;;;;8.50;99.90;;;;;;6710612;88;20645;-81
2023/10/25 03:03:30;;;;;;;;;;;8.40;99.90;;;;;;6709868;88;20091;-81
2023/10/25 03:13:31;;;;;;;;;;;8.30;99.90;;;;;;6709357;88;20525;-81
2023/10/25 03:23:31;;;;;;;;;;;8.30;99.90;;;;;;6705586;88;20059;-81
2023/10/25 03:33:32;;;;;;;;;;;8.30;99.90;;;;;;6711104;88;20539;-80
2023/10/25 03:43:33;;;;;;;;;;;8.30;99.90;;;;;;6713452;88;20199;-80
2023/10/25 03:53:37;;;;;;;;;;;8.20;99.90;;;;;;6732600;88;20040;-80
2023/10/25 04:03:38;;;;;;;;;;;8.20;99.90;;;;;;6731279;88;20059;-81
2023/10/25 04:13:38;;;;;;;;;;;8.30;99.90;;;;;;6732721;88;20056;-81
2023/10/25 04:23:39;;;;;;;;;;;8.30;99.90;;;;;;6741135;88;20081;-80
2023/10/25 04:33:40;;;;;;;;;;;8.30;99.90;;;;;;6741170;88;20698;-81
2023/10/25 04:43:41;;;;;;;;;;;8.30;99.90;;;;;;6742133;88;20143;-81
2023/10/25 04:53:43;;;;;;;;;;;8.30;99.90;;;;;;6729714;88;20183;-80
2023/10/25 05:03:44;;;;;;;;;;;8.50;99.90;;;;;;6722556;88;20055;-80
2023/10/25 05:13:44;;;;;;;;;;;8.50;99.90;;;;;;6725299;88;20093;-80
2023/10/25 05:23:45;;;;;;;;;;;8.40;99.90;;;;;;6727637;88;20205;-80
2023/10/25 05:33:46;;;;;;;;;;;8.40;99.90;;;;;;6734184;88;20075;-79
2023/10/25 05:43:50;;;;;;;;;;;8.30;99.90;;;;;;6732161;88;20142;-80
2023/10/25 05:53:50;;;;;;;;;;;8.40;99.90;;;;;;6715221;88;20234;-80
2023/10/25 06:03:51;;;;;;;;;;;8.50;99.90;;;;;;6708950;88;20287;-80
2023/10/25 06:13:52;;;;;;;;;;;8.60;99.90;;;;;;6713837;88;20650;-80
2023/10/25 06:23:52;;;;;;;;;;;8.70;99.90;;;;;;6728555;88;20556;-81
2023/10/25 06:33:53;;;;;;;;;;;8.90;99.90;;;;;;6737015;88;20059;-80
2023/10/25 06:43:53;;;;;;;;;;;9.00;99.90;;;;;;6741434;88;20059;-81
2023/10/25 06:53:54;;;;;;;;;;;9.10;99.90;;;;;;6742149;88;20087;-81
2023/10/25 07:03:58;;;;;;;;;;;9.10;99.90;;;;;;6740369;88;20065;-81
2023/10/25 07:13:59;;;;;;;;;;;9.30;99.90;;;;;;6740120;88;20643;-81
2023/10/25 07:23:59;;;;;;;;;;;9.50;99.90;;;;;;6742877;88;20049;-82
2023/10/25 07:34:00;;;;;;;;;;;9.70;99.90;;;;;;6740480;88;20129;-82
2023/10/25 07:44:01;;;;;;;;;;;9.90;99.90;;;;;;6738653;88;20080;-81
2023/10/25 07:54:01;;;;;;;;;;;9.70;99.90;;;;;;6740176;88;20064;-81
2023/10/25 08:04:02;;;;;;;;;;;9.80;99.90;;;;;;6737600;88;20144;-80
2023/10/25 08:14:03;;;;;;;;;;;9.80;99.90;;;;;;6732471;88;20057;-80
2023/10/25 08:24:05;;;;;;;;;;;9.90;99.90;;;;;;6738182;88;20163;-82
2023/10/25 08:34:05;;;;;;;;;;;9.90;99.90;;;;;;6738696;88;20073;-81
2023/10/25 08:44:08;;;;;;;;;;;10.10;99.90;;;;;;6714753;88;20055;-75
2023/10/25 08:54:12;;;;;;;;;;;10.20;99.90;;;;;;6713161;88;20069;-80
2023/10/25 09:04:12;;;;;;;;;;;10.40;99.90;;;;;;6716418;88;20454;-80
2023/10/25 09:14:16;;;;;;;;;;;10.50;99.90;;;;;;6716086;88;20063;-79
2023/10/25 09:24:16;;;;;;;;;;;10.60;99.90;;;;;;6732959;88;20629;-80
2023/10/25 09:34:17;;;;;;;;;;;10.80;99.90;;;;;;6721977;88;20114;-79
2023/10/25 09:44:19;;;;;;;;;;;10.90;99.90;;;;;;6716897;88;20126;-80
2023/10/25 09:54:23;;;;;;;;;;;10.80;99.90;;;;;;6715431;88;20108;-79
2023/10/25 10:04:36;;;;;;;;;;;10.40;99.90;;;;;;6712157;88;20078;-80
2023/10/25 10:14:38;;;;;;;;;;;10.10;99.90;;;;;;6712663;88;20516;-79
2023/10/25 10:24:44;;;;;;;;;;;10.00;99.90;;;;;;6710329;88;20051;-81
2023/10/25 10:34:49;;;;;;;;;;;10.10;99.90;;;;;;6707760;88;20068;-80
2023/10/25 10:44:49;;;;;;;;;;;10.10;99.90;;;;;;6708945;88;20055;-81
2023/10/25 10:54:49;;;;;;;;;;;10.20;99.90;;;;;;6710594;88;20851;-80
2023/10/25 11:04:50;;;;;;;;;;;10.30;99.90;;;;;;6708298;88;20097;-80
2023/10/25 11:14:50;;;;;;;;;;;10.20;99.90;;;;;;6707883;88;20505;-81
2023/10/25 11:24:51;;;;;;;;;;;10.30;99.90;;;;;;6708283;88;20074;-80
2023/10/25 11:34:56;;;;;;;;;;;10.30;99.90;;;;;;6706230;88;20879;-81
2023/10/25 11:44:58;;;;;;;;;;;10.20;99.90;;;;;;6706138;88;20051;-81
2023/10/25 11:54:59;;;;;;;;;;;10.30;99.90;;;;;;6715745;88;20083;-80
2023/10/25 12:05:01;;;;;;;;;;;10.30;99.90;;;;;;6706577;88;20055;-79
2023/10/25 12:15:02;;;;;;;;;;;10.50;99.90;;;;;;6709917;88;20675;-80
2023/10/25 12:25:03;;;;;;;;;;;10.50;99.90;;;;;;6707848;88;20105;-80
2023/10/25 12:35:03;;;;;;;;;;;10.60;99.90;;;;;;6708951;88;20064;-80
2023/10/25 12:45:04;;;;;;;;;;;10.60;99.90;;;;;;6702608;88;20103;-79
2023/10/25 12:55:04;;;;;;;;;;;10.60;99.90;;;;;;6711691;88;20596;-80
2023/10/25 13:05:05;;;;;;;;;;;10.70;99.90;;;;;;6713758;88;20084;-80
2023/10/25 13:15:06;;;;;;;;;;;10.80;99.90;;;;;;6717273;88;20068;-79
2023/10/25 13:25:07;;;;;;;;;;;10.80;99.90;;;;;;6709608;88;20735;-80
2023/10/25 13:35:08;;;;;;;;;;;11.00;99.90;;;;;;6711498;88;20063;-80
2023/10/25 13:45:08;;;;;;;;;;;11.00;99.90;;;;;;6708587;88;20043;-80
2023/10/25 13:55:09;;;;;;;;;;;11.00;99.90;;;;;;6724869;88;20546;-80
2023/10/25 14:05:11;;;;;;;;;;;11.10;99.90;;;;;;6712757;88;20130;-78
2023/10/25 14:15:11;;;;;;;;;;;11.30;99.90;;;;;;6709369;88;20118;-78
2023/10/25 14:25:12;;;;;;;;;;;11.30;99.90;;;;;;6714728;88;20185;-78
2023/10/25 14:35:13;;;;;;;;;;;11.40;99.90;;;;;;6708019;88;20080;-79
2023/10/25 14:45:16;;;;;;;;;;;11.50;99.90;;;;;;6708710;88;20067;-79
2023/10/25 15:05:21;;;;;;;;;;;11.60;99.90;;;;;;6706391;88;20541;-79
2023/10/25 15:15:21;;;;;;;;;;;11.60;99.90;;;;;;6710056;88;20120;-79
2023/10/25 15:25:23;;;;;;;;;;;11.60;99.90;;;;;;6711914;88;20742;-78
2023/10/25 15:35:23;;;;;;;;;;;11.70;99.90;;;;;;6701402;88;20508;-78
2023/10/25 15:45:24;;;;;;;;;;;11.70;99.90;;;;;;6708400;88;20481;-78
2023/10/25 15:55:24;;;;;;;;;;;11.70;99.90;;;;;;6700977;88;20064;-79
2023/10/25 16:05:25;;;;;;;;;;;11.80;99.90;;;;;;6703022;88;20075;-80
2023/10/25 16:15:25;;;;;;;;;;;11.80;99.90;;;;;;6699978;88;20577;-80
2023/10/25 16:25:25;;;;;;;;;;;11.80;99.90;;;;;;6699132;88;20055;-80
2023/10/25 16:35:26;;;;;;;;;;;11.80;99.90;;;;;;6701100;88;20067;-78
2023/10/25 16:45:27;;;;;;;;;;;11.80;99.90;;;;;;6703029;88;20069;-79
2023/10/25 16:55:27;;;;;;;;;;;11.70;99.90;;;;;;6706238;88;20089;-79
2023/10/25 17:05:28;;;;;;;;;;;11.70;99.90;;;;;;6709199;88;20070;-79
2023/10/25 17:15:28;;;;;;;;;;;11.80;99.90;;;;;;6710076;88;20089;-79
2023/10/25 17:25:30;;;;;;;;;;;11.70;99.90;;;;;;6706803;88;20069;-80
2023/10/25 17:35:31;;;;;;;;;;;11.80;99.90;;;;;;6712883;88;20063;-80
2023/10/25 17:45:33;;;;;;;;;;;11.80;99.90;;;;;;6699959;88;20546;-79
2023/10/25 17:55:37;;;;;;;;;;;11.80;99.90;;;;;;6701227;88;20079;-79
2023/10/25 18:05:41;;;;;;;;;;;11.70;99.90;;;;;;6698709;88;20099;-78
2023/10/25 18:15:41;;;;;;;;;;;11.80;99.90;;;;;;6696974;88;20101;-78
2023/10/25 18:25:42;;;;;;;;;;;12.00;99.90;;;;;;6699436;88;20065;-78
2023/10/25 18:35:44;;;;;;;;;;;12.00;99.90;;;;;;6692183;88;20057;-78
2023/10/25 18:45:54;;;;;;;;;;;12.10;99.90;;;;;;6697224;88;20148;-78
2023/10/25 18:55:59;;;;;;;;;;;12.10;99.90;;;;;;6701845;88;20562;-77
2023/10/25 19:06:02;;;;;;;;;;;12.00;99.90;;;;;;6685615;88;20068;-78
2023/10/25 19:16:03;;;;;;;;;;;11.90;99.90;;;;;;6688368;88;20626;-78
2023/10/25 19:26:03;;;;;;;;;;;11.90;99.90;;;;;;6687870;88;20316;-77
2023/10/25 19:36:04;;;;;;;;;;;11.90;99.90;;;;;;6688227;88;20068;-77
2023/10/25 19:46:05;;;;;;;;;;;11.70;99.90;;;;;;6689598;88;20576;-78
2023/10/25 19:56:05;;;;;;;;;;;11.70;99.90;;;;;;6690249;88;20117;-78
2023/10/25 20:06:06;;;;;;;;;;;11.60;99.90;;;;;;6687278;88;20060;-78
2023/10/25 20:16:07;;;;;;;;;;;11.40;99.90;;;;;;6689164;88;20195;-78
2023/10/25 20:26:09;;;;;;;;;;;11.40;99.90;;;;;;6688641;88;20075;-77
2023/10/25 20:36:09;;;;;;;;;;;11.40;99.90;;;;;;6692657;88;20687;-78
2023/10/25 20:46:10;;;;;;;;;;;11.30;99.90;;;;;;6705479;88;20104;-78
2023/10/25 21:06:14;;;;;;;;;;;11.40;99.90;;;;;;6706089;88;20210;-78
2023/10/25 21:16:14;;;;;;;;;;;11.30;99.90;;;;;;6702183;88;20098;-78
2023/10/25 21:26:15;;;;;;;;;;;11.40;99.90;;;;;;6701489;88;20507;-78
2023/10/25 21:36:16;;;;;;;;;;;11.30;99.90;;;;;;6701577;88;20071;-78
2023/10/25 21:46:16;;;;;;;;;;;11.30;99.90;;;;;;6702927;88;20088;-78
2023/10/25 21:56:17;;;;;;;;;;;11.30;99.90;;;;;;6701495;88;20077;-78
2023/10/25 22:06:18;;;;;;;;;;;11.30;99.90;;;;;;6701234;88;20173;-77
2023/10/25 22:16:19;;;;;;;;;;;11.30;99.90;;;;;;6695380;88;20532;-79
2023/10/25 22:26:20;;;;;;;;;;;11.20;99.90;;;;;;6685830;88;20056;-77
2023/10/25 22:36:21;;;;;;;;;;;11.10;99.90;;;;;;6688030;88;20057;-78
2023/10/25 22:46:21;;;;;;;;;;;11.10;99.90;;;;;;6691618;88;20072;-78
2023/10/25 22:56:22;;;;;;;;;;;11.00;99.90;;;;;;6688848;88;20576;-78
2023/10/25 23:06:22;;;;;;;;;;;11.00;99.90;;;;;;6685607;88;20056;-78
2023/10/25 23:16:24;;;;;;;;;;;11.00;99.90;;;;;;6688866;88;20067;-79
2023/10/25 23:26:24;;;;;;;;;;;11.00;99.90;;;;;;6693172;88;20128;-78
2023/10/25 23:36:24;;;;;;;;;;;11.00;99.90;;;;;;6692060;88;20612;-78
2023/10/25 23:46:25;;;;;;;;;;;11.10;99.90;;;;;;6686356;88;20084;-77
2023/10/25 23:56:25;;;;;;;;;;;10.90;99.90;;;;;;6692344;88;20078;-80
